sensor_id;sensor_type;location;lat;lon;timestamp;P1;durP1;ratioP1;P2;durP2;ratioP2
10212;SDS011;5150;51.400;6.692;2022-11-15T00:01:57;15.38;;;6.22;;
10212;SDS011;5150;51.400;6.692;2022-11-15T00:05:38;6.50;;;5.10;;
10212;SDS011;5150;51.400;6.692;2022-11-15T00:09:21;11.18;;;5.47;;
10212;SDS011;5150;51.400;6.692;2022-11-15T00:13:06;9.20;;;5.85;;
10212;SDS011;5150;51.400;6.692;2022-11-15T00:16:48;19.33;;;6.50;;
10212;SDS011;5150;51.400;6.692;2022-11-15T00:20:29;9.65;;;6.00;;
10212;SDS011;5150;51.400;6.692;2022-11-15T00:24:10;10.20;;;5.85;;
10212;SDS011;5150;51.400;6.692;2022-11-15T00:27:55;8.55;;;4.85;;
10212;SDS011;5150;51.400;6.692;2022-11-15T00:31:37;10.27;;;5.25;;
10212;SDS011;5150;51.400;6.692;2022-11-15T00:35:19;8.23;;;5.20;;
10212;SDS011;5150;51.400;6.692;2022-11-15T00:39:03;6.63;;;5.57;;
10212;SDS011;5150;51.400;6.692;2022-11-15T00:42:45;8.98;;;4.63;;
10212;SDS011;5150;51.400;6.692;2022-11-15T00:46:28;7.80;;;5.32;;
10212;SDS011;5150;51.400;6.692;2022-11-15T00:50:09;11.02;;;5.13;;
10212;SDS011;5150;51.400;6.692;2022-11-15T00:53:54;12.68;;;5.78;;
10212;SDS011;5150;51.400;6.692;2022-11-15T00:57:36;12.93;;;5.55;;
10212;SDS011;5150;51.400;6.692;2022-11-15T01:01:17;6.95;;;5.25;;
10212;SDS011;5150;51.400;6.692;2022-11-15T01:04:59;7.57;;;5.18;;
10212;SDS011;5150;51.400;6.692;2022-11-15T01:08:41;7.43;;;4.97;;
10212;SDS011;5150;51.400;6.692;2022-11-15T01:12:22;9.82;;;5.22;;
10212;SDS011;5150;51.400;6.692;2022-11-15T01:16:08;14.80;;;5.53;;
10212;SDS011;5150;51.400;6.692;2022-11-15T01:19:51;9.55;;;5.38;;
10212;SDS011;5150;51.400;6.692;2022-11-15T01:23:34;13.82;;;5.65;;
10212;SDS011;5150;51.400;6.692;2022-11-15T01:27:16;7.43;;;5.07;;
10212;SDS011;5150;51.400;6.692;2022-11-15T01:30:58;7.07;;;4.50;;
10212;SDS011;5150;51.400;6.692;2022-11-15T01:34:40;8.20;;;5.25;;
10212;SDS011;5150;51.400;6.692;2022-11-15T01:38:21;6.72;;;4.60;;
10212;SDS011;5150;51.400;6.692;2022-11-15T01:42:04;7.90;;;5.15;;
10212;SDS011;5150;51.400;6.692;2022-11-15T01:45:46;7.60;;;4.60;;
10212;SDS011;5150;51.400;6.692;2022-11-15T01:49:34;10.13;;;4.78;;
10212;SDS011;5150;51.400;6.692;2022-11-15T01:53:19;5.75;;;4.43;;
10212;SDS011;5150;51.400;6.692;2022-11-15T01:57:06;6.57;;;4.63;;
10212;SDS011;5150;51.400;6.692;2022-11-15T02:00:50;5.25;;;4.65;;
10212;SDS011;5150;51.400;6.692;2022-11-15T02:04:34;8.38;;;5.60;;
10212;SDS011;5150;51.400;6.692;2022-11-15T02:08:18;6.50;;;4.38;;
10212;SDS011;5150;51.400;6.692;2022-11-15T02:12:00;8.85;;;4.88;;
10212;SDS011;5150;51.400;6.692;2022-11-15T02:15:44;9.32;;;5.85;;
10212;SDS011;5150;51.400;6.692;2022-11-15T02:20:07;5.88;;;4.13;;
10212;SDS011;5150;51.400;6.692;2022-11-15T02:32:23;5.90;;;4.70;;
10212;SDS011;5150;51.400;6.692;2022-11-15T02:36:11;13.05;;;5.47;;
10212;SDS011;5150;51.400;6.692;2022-11-15T02:39:57;11.82;;;5.07;;
10212;SDS011;5150;51.400;6.692;2022-11-15T02:43:46;12.70;;;5.38;;
10212;SDS011;5150;51.400;6.692;2022-11-15T02:47:41;10.25;;;5.07;;
10212;SDS011;5150;51.400;6.692;2022-11-15T02:51:26;7.35;;;4.35;;
10212;SDS011;5150;51.400;6.692;2022-11-15T02:59:28;6.32;;;4.47;;
10212;SDS011;5150;51.400;6.692;2022-11-15T03:03:43;7.05;;;4.70;;
10212;SDS011;5150;51.400;6.692;2022-11-15T03:07:34;4.82;;;4.18;;
10212;SDS011;5150;51.400;6.692;2022-11-15T03:11:21;11.73;;;5.72;;
10212;SDS011;5150;51.400;6.692;2022-11-15T03:15:05;9.43;;;5.18;;
10212;SDS011;5150;51.400;6.692;2022-11-15T03:18:51;9.18;;;4.57;;
10212;SDS011;5150;51.400;6.692;2022-11-15T03:22:38;10.75;;;5.28;;
10212;SDS011;5150;51.400;6.692;2022-11-15T03:26:23;8.60;;;4.45;;
10212;SDS011;5150;51.400;6.692;2022-11-15T03:30:07;5.97;;;4.78;;
10212;SDS011;5150;51.400;6.692;2022-11-15T03:33:51;8.05;;;5.28;;
10212;SDS011;5150;51.400;6.692;2022-11-15T03:37:36;7.57;;;4.22;;
10212;SDS011;5150;51.400;6.692;2022-11-15T03:41:29;6.28;;;4.22;;
10212;SDS011;5150;51.400;6.692;2022-11-15T03:45:16;11.73;;;5.68;;
10212;SDS011;5150;51.400;6.692;2022-11-15T03:49:05;6.63;;;3.92;;
10212;SDS011;5150;51.400;6.692;2022-11-15T03:52:50;8.48;;;4.45;;
10212;SDS011;5150;51.400;6.692;2022-11-15T03:56:34;5.25;;;3.78;;
10212;SDS011;5150;51.400;6.692;2022-11-15T04:00:16;5.57;;;3.75;;
10212;SDS011;5150;51.400;6.692;2022-11-15T04:03:58;7.45;;;3.95;;
10212;SDS011;5150;51.400;6.692;2022-11-15T04:07:40;6.60;;;4.07;;
10212;SDS011;5150;51.400;6.692;2022-11-15T04:11:23;10.50;;;4.45;;
10212;SDS011;5150;51.400;6.692;2022-11-15T04:15:05;6.03;;;4.13;;
10212;SDS011;5150;51.400;6.692;2022-11-15T04:18:48;10.77;;;4.45;;
10212;SDS011;5150;51.400;6.692;2022-11-15T04:22:53;5.05;;;3.70;;
10212;SDS011;5150;51.400;6.692;2022-11-15T04:26:52;3.83;;;3.47;;
10212;SDS011;5150;51.400;6.692;2022-11-15T04:30:33;4.13;;;3.60;;
10212;SDS011;5150;51.400;6.692;2022-11-15T04:34:15;6.85;;;3.83;;
10212;SDS011;5150;51.400;6.692;2022-11-15T04:37:58;9.00;;;4.13;;
10212;SDS011;5150;51.400;6.692;2022-11-15T04:41:40;5.55;;;4.13;;
10212;SDS011;5150;51.400;6.692;2022-11-15T04:45:21;8.57;;;3.67;;
10212;SDS011;5150;51.400;6.692;2022-11-15T04:49:03;6.35;;;4.25;;
10212;SDS011;5150;51.400;6.692;2022-11-15T04:52:49;11.68;;;4.22;;
10212;SDS011;5150;51.400;6.692;2022-11-15T04:56:33;6.30;;;3.83;;
10212;SDS011;5150;51.400;6.692;2022-11-15T05:00:15;7.45;;;4.18;;
10212;SDS011;5150;51.400;6.692;2022-11-15T05:03:58;9.90;;;4.35;;
10212;SDS011;5150;51.400;6.692;2022-11-15T05:07:57;8.68;;;4.55;;
10212;SDS011;5150;51.400;6.692;2022-11-15T05:11:39;6.78;;;4.05;;
10212;SDS011;5150;51.400;6.692;2022-11-15T05:15:21;9.55;;;3.80;;
10212;SDS011;5150;51.400;6.692;2022-11-15T05:19:03;5.53;;;3.72;;
10212;SDS011;5150;51.400;6.692;2022-11-15T05:22:44;6.35;;;4.25;;
10212;SDS011;5150;51.400;6.692;2022-11-15T05:26:25;5.10;;;4.60;;
10212;SDS011;5150;51.400;6.692;2022-11-15T05:30:09;9.35;;;3.95;;
10212;SDS011;5150;51.400;6.692;2022-11-15T05:33:51;9.45;;;4.50;;
10212;SDS011;5150;51.400;6.692;2022-11-15T05:37:34;7.72;;;4.43;;
10212;SDS011;5150;51.400;6.692;2022-11-15T05:41:16;10.57;;;4.32;;
10212;SDS011;5150;51.400;6.692;2022-11-15T05:45:01;6.65;;;4.00;;
10212;SDS011;5150;51.400;6.692;2022-11-15T05:48:47;7.30;;;3.83;;
10212;SDS011;5150;51.400;6.692;2022-11-15T05:52:31;13.20;;;4.90;;
10212;SDS011;5150;51.400;6.692;2022-11-15T05:56:17;10.40;;;3.65;;
10212;SDS011;5150;51.400;6.692;2022-11-15T05:59:59;5.40;;;4.30;;
10212;SDS011;5150;51.400;6.692;2022-11-15T06:03:41;14.63;;;4.70;;
10212;SDS011;5150;51.400;6.692;2022-11-15T06:07:23;5.90;;;4.10;;
10212;SDS011;5150;51.400;6.692;2022-11-15T06:11:05;12.93;;;5.10;;
10212;SDS011;5150;51.400;6.692;2022-11-15T06:14:47;28.40;;;6.03;;
10212;SDS011;5150;51.400;6.692;2022-11-15T06:18:31;7.80;;;4.38;;
10212;SDS011;5150;51.400;6.692;2022-11-15T06:22:13;9.60;;;4.93;;
10212;SDS011;5150;51.400;6.692;2022-11-15T06:25:58;8.65;;;4.53;;
10212;SDS011;5150;51.400;6.692;2022-11-15T06:29:40;14.93;;;5.65;;
10212;SDS011;5150;51.400;6.692;2022-11-15T06:33:22;9.57;;;4.63;;
10212;SDS011;5150;51.400;6.692;2022-11-15T06:37:04;17.10;;;5.30;;
10212;SDS011;5150;51.400;6.692;2022-11-15T06:40:45;13.50;;;4.82;;
10212;SDS011;5150;51.400;6.692;2022-11-15T06:44:28;12.55;;;4.63;;
10212;SDS011;5150;51.400;6.692;2022-11-15T06:48:09;13.77;;;5.45;;
10212;SDS011;5150;51.400;6.692;2022-11-15T06:51:51;18.75;;;5.15;;
10212;SDS011;5150;51.400;6.692;2022-11-15T06:55:32;8.95;;;4.72;;
10212;SDS011;5150;51.400;6.692;2022-11-15T06:59:13;9.73;;;4.45;;
10212;SDS011;5150;51.400;6.692;2022-11-15T07:02:56;7.80;;;4.65;;
10212;SDS011;5150;51.400;6.692;2022-11-15T07:06:40;11.38;;;5.07;;
10212;SDS011;5150;51.400;6.692;2022-11-15T07:10:22;12.75;;;4.50;;
10212;SDS011;5150;51.400;6.692;2022-11-15T07:14:04;8.13;;;4.38;;
10212;SDS011;5150;51.400;6.692;2022-11-15T07:17:46;8.82;;;4.78;;
10212;SDS011;5150;51.400;6.692;2022-11-15T07:21:29;10.07;;;4.60;;
10212;SDS011;5150;51.400;6.692;2022-11-15T07:25:10;10.52;;;4.78;;
10212;SDS011;5150;51.400;6.692;2022-11-15T07:28:52;8.70;;;3.88;;
10212;SDS011;5150;51.400;6.692;2022-11-15T07:32:34;8.73;;;4.45;;
10212;SDS011;5150;51.400;6.692;2022-11-15T07:36:15;7.53;;;3.75;;
10212;SDS011;5150;51.400;6.692;2022-11-15T07:39:58;8.55;;;4.32;;
10212;SDS011;5150;51.400;6.692;2022-11-15T07:43:40;6.65;;;4.03;;
10212;SDS011;5150;51.400;6.692;2022-11-15T07:47:21;17.35;;;4.75;;
10212;SDS011;5150;51.400;6.692;2022-11-15T07:51:02;8.73;;;3.78;;
10212;SDS011;5150;51.400;6.692;2022-11-15T07:54:51;14.85;;;4.80;;
10212;SDS011;5150;51.400;6.692;2022-11-15T07:58:34;9.93;;;5.25;;
10212;SDS011;5150;51.400;6.692;2022-11-15T08:02:16;10.13;;;4.07;;
10212;SDS011;5150;51.400;6.692;2022-11-15T08:05:58;7.10;;;4.93;;
10212;SDS011;5150;51.400;6.692;2022-11-15T08:09:40;8.40;;;4.40;;
10212;SDS011;5150;51.400;6.692;2022-11-15T08:13:21;9.45;;;3.78;;
10212;SDS011;5150;51.400;6.692;2022-11-15T08:17:04;8.23;;;3.45;;
10212;SDS011;5150;51.400;6.692;2022-11-15T08:20:45;10.48;;;4.25;;
10212;SDS011;5150;51.400;6.692;2022-11-15T08:24:27;13.23;;;4.00;;
10212;SDS011;5150;51.400;6.692;2022-11-15T08:28:09;11.60;;;3.53;;
10212;SDS011;5150;51.400;6.692;2022-11-15T08:31:54;8.55;;;3.90;;
10212;SDS011;5150;51.400;6.692;2022-11-15T08:35:37;15.48;;;4.72;;
10212;SDS011;5150;51.400;6.692;2022-11-15T08:39:18;10.88;;;4.85;;
10212;SDS011;5150;51.400;6.692;2022-11-15T08:43:00;5.38;;;3.50;;
10212;SDS011;5150;51.400;6.692;2022-11-15T08:46:44;13.15;;;3.95;;
10212;SDS011;5150;51.400;6.692;2022-11-15T08:50:26;17.48;;;4.43;;
10212;SDS011;5150;51.400;6.692;2022-11-15T08:54:09;12.45;;;4.13;;
10212;SDS011;5150;51.400;6.692;2022-11-15T08:57:51;11.93;;;3.45;;
10212;SDS011;5150;51.400;6.692;2022-11-15T09:01:32;8.63;;;3.83;;
10212;SDS011;5150;51.400;6.692;2022-11-15T09:05:13;8.43;;;3.28;;
10212;SDS011;5150;51.400;6.692;2022-11-15T09:08:56;10.20;;;3.97;;
10212;SDS011;5150;51.400;6.692;2022-11-15T09:12:39;9.50;;;3.60;;
10212;SDS011;5150;51.400;6.692;2022-11-15T09:16:21;7.97;;;3.40;;
10212;SDS011;5150;51.400;6.692;2022-11-15T09:20:02;5.75;;;2.78;;
10212;SDS011;5150;51.400;6.692;2022-11-15T09:23:44;7.50;;;3.35;;
10212;SDS011;5150;51.400;6.692;2022-11-15T09:27:27;8.13;;;2.92;;
10212;SDS011;5150;51.400;6.692;2022-11-15T09:31:10;11.38;;;3.10;;
10212;SDS011;5150;51.400;6.692;2022-11-15T09:34:57;7.50;;;3.08;;
10212;SDS011;5150;51.400;6.692;2022-11-15T09:38:39;6.40;;;3.03;;
10212;SDS011;5150;51.400;6.692;2022-11-15T09:42:23;8.32;;;3.47;;
10212;SDS011;5150;51.400;6.692;2022-11-15T09:46:17;7.85;;;3.40;;
10212;SDS011;5150;51.400;6.692;2022-11-15T09:50:08;7.07;;;3.22;;
10212;SDS011;5150;51.400;6.692;2022-11-15T09:53:34;7.13;;;3.10;;
10212;SDS011;5150;51.400;6.692;2022-11-15T09:57:24;7.30;;;3.50;;
10212;SDS011;5150;51.400;6.692;2022-11-15T10:00:54;5.18;;;3.47;;
10212;SDS011;5150;51.400;6.692;2022-11-15T10:04:21;4.35;;;3.00;;
10212;SDS011;5150;51.400;6.692;2022-11-15T10:07:46;5.32;;;2.97;;
10212;SDS011;5150;51.400;6.692;2022-11-15T10:11:15;6.38;;;2.92;;
10212;SDS011;5150;51.400;6.692;2022-11-15T10:15:02;4.07;;;2.65;;
10212;SDS011;5150;51.400;6.692;2022-11-15T10:18:27;5.68;;;3.30;;
10212;SDS011;5150;51.400;6.692;2022-11-15T10:22:03;5.50;;;2.95;;
10212;SDS011;5150;51.400;6.692;2022-11-15T10:25:38;4.40;;;3.00;;
10212;SDS011;5150;51.400;6.692;2022-11-15T10:29:01;6.10;;;2.40;;
10212;SDS011;5150;51.400;6.692;2022-11-15T10:32:24;12.38;;;3.00;;
10212;SDS011;5150;51.400;6.692;2022-11-15T10:35:48;9.35;;;3.70;;
10212;SDS011;5150;51.400;6.692;2022-11-15T10:39:12;7.32;;;3.03;;
10212;SDS011;5150;51.400;6.692;2022-11-15T10:42:36;5.80;;;2.28;;
10212;SDS011;5150;51.400;6.692;2022-11-15T10:46:00;3.83;;;2.58;;
10212;SDS011;5150;51.400;6.692;2022-11-15T10:50:03;7.10;;;3.03;;
10212;SDS011;5150;51.400;6.692;2022-11-15T10:53:29;4.78;;;3.00;;
10212;SDS011;5150;51.400;6.692;2022-11-15T10:56:57;9.07;;;2.58;;
10212;SDS011;5150;51.400;6.692;2022-11-15T11:00:30;4.22;;;2.97;;
10212;SDS011;5150;51.400;6.692;2022-11-15T11:03:58;4.40;;;2.72;;
10212;SDS011;5150;51.400;6.692;2022-11-15T11:07:24;4.93;;;2.85;;
10212;SDS011;5150;51.400;6.692;2022-11-15T11:10:51;3.40;;;2.47;;
10212;SDS011;5150;51.400;6.692;2022-11-15T11:14:24;11.75;;;3.65;;
10212;SDS011;5150;51.400;6.692;2022-11-15T11:17:56;9.75;;;3.25;;
10212;SDS011;5150;51.400;6.692;2022-11-15T11:21:25;9.40;;;2.80;;
10212;SDS011;5150;51.400;6.692;2022-11-15T11:25:18;4.85;;;3.00;;
10212;SDS011;5150;51.400;6.692;2022-11-15T11:28:48;8.57;;;3.35;;
10212;SDS011;5150;51.400;6.692;2022-11-15T11:32:29;10.50;;;3.28;;
10212;SDS011;5150;51.400;6.692;2022-11-15T11:36:01;5.85;;;2.60;;
10212;SDS011;5150;51.400;6.692;2022-11-15T11:39:34;8.57;;;3.08;;
10212;SDS011;5150;51.400;6.692;2022-11-15T11:43:04;10.00;;;2.85;;
10212;SDS011;5150;51.400;6.692;2022-11-15T11:46:44;4.75;;;3.08;;
10212;SDS011;5150;51.400;6.692;2022-11-15T11:50:13;5.55;;;2.92;;
10212;SDS011;5150;51.400;6.692;2022-11-15T11:53:41;4.53;;;2.63;;
10212;SDS011;5150;51.400;6.692;2022-11-15T11:57:12;5.63;;;2.58;;
10212;SDS011;5150;51.400;6.692;2022-11-15T12:00:40;5.97;;;3.08;;
10212;SDS011;5150;51.400;6.692;2022-11-15T12:04:09;5.33;;;3.00;;
10212;SDS011;5150;51.400;6.692;2022-11-15T12:07:38;5.03;;;3.05;;
10212;SDS011;5150;51.400;6.692;2022-11-15T12:11:07;6.65;;;2.92;;
10212;SDS011;5150;51.400;6.692;2022-11-15T12:14:36;3.53;;;2.33;;
10212;SDS011;5150;51.400;6.692;2022-11-15T12:18:04;8.93;;;3.20;;
10212;SDS011;5150;51.400;6.692;2022-11-15T12:21:33;4.93;;;2.70;;
10212;SDS011;5150;51.400;6.692;2022-11-15T12:25:02;4.55;;;2.10;;
10212;SDS011;5150;51.400;6.692;2022-11-15T12:28:32;5.80;;;2.42;;
10212;SDS011;5150;51.400;6.692;2022-11-15T12:32:24;4.70;;;2.50;;
10212;SDS011;5150;51.400;6.692;2022-11-15T12:35:57;5.32;;;2.90;;
10212;SDS011;5150;51.400;6.692;2022-11-15T12:39:21;5.30;;;2.20;;
10212;SDS011;5150;51.400;6.692;2022-11-15T12:47:21;4.20;;;3.13;;
10212;SDS011;5150;51.400;6.692;2022-11-15T12:50:52;5.55;;;2.53;;
10212;SDS011;5150;51.400;6.692;2022-11-15T12:58:27;6.22;;;3.05;;
10212;SDS011;5150;51.400;6.692;2022-11-15T13:02:11;6.18;;;2.67;;
10212;SDS011;5150;51.400;6.692;2022-11-15T13:13:15;3.88;;;3.28;;
10212;SDS011;5150;51.400;6.692;2022-11-15T13:17:17;11.30;;;3.08;;
10212;SDS011;5150;51.400;6.692;2022-11-15T13:20:47;10.88;;;3.05;;
10212;SDS011;5150;51.400;6.692;2022-11-15T13:24:12;6.78;;;3.08;;
10212;SDS011;5150;51.400;6.692;2022-11-15T13:27:37;6.25;;;3.08;;
10212;SDS011;5150;51.400;6.692;2022-11-15T13:31:13;6.18;;;2.75;;
10212;SDS011;5150;51.400;6.692;2022-11-15T13:34:46;6.88;;;3.08;;
10212;SDS011;5150;51.400;6.692;2022-11-15T13:38:17;7.32;;;2.20;;
10212;SDS011;5150;51.400;6.692;2022-11-15T13:41:48;4.82;;;2.22;;
10212;SDS011;5150;51.400;6.692;2022-11-15T13:45:12;4.25;;;2.83;;
10212;SDS011;5150;51.400;6.692;2022-11-15T13:48:39;3.75;;;2.60;;
10212;SDS011;5150;51.400;6.692;2022-11-15T13:52:04;7.45;;;2.53;;
10212;SDS011;5150;51.400;6.692;2022-11-15T13:55:28;6.60;;;2.75;;
10212;SDS011;5150;51.400;6.692;2022-11-15T13:58:54;4.53;;;2.60;;
10212;SDS011;5150;51.400;6.692;2022-11-15T14:02:18;6.57;;;2.75;;
10212;SDS011;5150;51.400;6.692;2022-11-15T14:05:45;4.13;;;2.55;;
10212;SDS011;5150;51.400;6.692;2022-11-15T14:09:25;5.30;;;2.63;;
10212;SDS011;5150;51.400;6.692;2022-11-15T14:12:54;5.20;;;2.42;;
10212;SDS011;5150;51.400;6.692;2022-11-15T14:16:18;6.20;;;2.47;;
10212;SDS011;5150;51.400;6.692;2022-11-15T14:19:43;6.13;;;2.60;;
10212;SDS011;5150;51.400;6.692;2022-11-15T14:23:18;5.93;;;2.35;;
10212;SDS011;5150;51.400;6.692;2022-11-15T14:26:46;12.20;;;3.15;;
10212;SDS011;5150;51.400;6.692;2022-11-15T14:30:13;8.35;;;2.60;;
10212;SDS011;5150;51.400;6.692;2022-11-15T14:33:37;9.65;;;3.03;;
10212;SDS011;5150;51.400;6.692;2022-11-15T14:37:00;12.75;;;3.20;;
10212;SDS011;5150;51.400;6.692;2022-11-15T14:40:24;8.65;;;3.28;;
10212;SDS011;5150;51.400;6.692;2022-11-15T14:43:48;10.30;;;3.22;;
10212;SDS011;5150;51.400;6.692;2022-11-15T14:47:12;14.38;;;2.70;;
10212;SDS011;5150;51.400;6.692;2022-11-15T14:50:35;7.25;;;3.35;;
10212;SDS011;5150;51.400;6.692;2022-11-15T14:53:58;8.55;;;2.55;;
10212;SDS011;5150;51.400;6.692;2022-11-15T14:57:22;8.93;;;3.10;;
10212;SDS011;5150;51.400;6.692;2022-11-15T15:00:46;7.63;;;2.97;;
10212;SDS011;5150;51.400;6.692;2022-11-15T15:04:09;5.82;;;3.03;;
10212;SDS011;5150;51.400;6.692;2022-11-15T15:07:32;5.18;;;2.42;;
10212;SDS011;5150;51.400;6.692;2022-11-15T15:10:55;5.63;;;2.50;;
10212;SDS011;5150;51.400;6.692;2022-11-15T15:14:20;7.53;;;2.63;;
10212;SDS011;5150;51.400;6.692;2022-11-15T15:17:43;4.35;;;2.42;;
10212;SDS011;5150;51.400;6.692;2022-11-15T15:21:20;4.80;;;2.55;;
10212;SDS011;5150;51.400;6.692;2022-11-15T15:24:44;3.88;;;2.05;;
10212;SDS011;5150;51.400;6.692;2022-11-15T15:28:07;6.80;;;2.83;;
10212;SDS011;5150;51.400;6.692;2022-11-15T15:31:32;5.13;;;2.55;;
10212;SDS011;5150;51.400;6.692;2022-11-15T15:34:55;5.80;;;3.03;;
10212;SDS011;5150;51.400;6.692;2022-11-15T15:38:18;5.05;;;2.42;;
10212;SDS011;5150;51.400;6.692;2022-11-15T15:41:41;6.65;;;2.55;;
10212;SDS011;5150;51.400;6.692;2022-11-15T15:45:04;6.80;;;2.70;;
10212;SDS011;5150;51.400;6.692;2022-11-15T15:48:29;3.35;;;1.83;;
10212;SDS011;5150;51.400;6.692;2022-11-15T15:51:52;15.38;;;3.58;;
10212;SDS011;5150;51.400;6.692;2022-11-15T15:55:15;6.20;;;2.53;;
10212;SDS011;5150;51.400;6.692;2022-11-15T15:58:38;6.82;;;2.58;;
10212;SDS011;5150;51.400;6.692;2022-11-15T16:02:01;4.80;;;2.17;;
10212;SDS011;5150;51.400;6.692;2022-11-15T16:05:26;6.40;;;2.90;;
10212;SDS011;5150;51.400;6.692;2022-11-15T16:08:49;7.35;;;2.75;;
10212;SDS011;5150;51.400;6.692;2022-11-15T16:12:32;7.80;;;2.80;;
10212;SDS011;5150;51.400;6.692;2022-11-15T16:15:56;5.15;;;2.33;;
10212;SDS011;5150;51.400;6.692;2022-11-15T16:19:19;8.68;;;2.95;;
10212;SDS011;5150;51.400;6.692;2022-11-15T16:22:43;5.70;;;2.38;;
10212;SDS011;5150;51.400;6.692;2022-11-15T16:26:09;5.75;;;2.55;;
10212;SDS011;5150;51.400;6.692;2022-11-15T16:29:43;4.63;;;2.47;;
10212;SDS011;5150;51.400;6.692;2022-11-15T16:33:07;6.55;;;2.38;;
10212;SDS011;5150;51.400;6.692;2022-11-15T16:36:30;6.03;;;2.30;;
10212;SDS011;5150;51.400;6.692;2022-11-15T16:39:56;5.32;;;2.55;;
10212;SDS011;5150;51.400;6.692;2022-11-15T16:43:21;8.48;;;2.17;;
10212;SDS011;5150;51.400;6.692;2022-11-15T16:46:45;6.20;;;2.45;;
10212;SDS011;5150;51.400;6.692;2022-11-15T16:50:14;10.25;;;2.92;;
10212;SDS011;5150;51.400;6.692;2022-11-15T16:53:44;8.18;;;2.53;;
10212;SDS011;5150;51.400;6.692;2022-11-15T16:57:10;4.18;;;2.33;;
10212;SDS011;5150;51.400;6.692;2022-11-15T17:00:33;6.13;;;2.47;;
10212;SDS011;5150;51.400;6.692;2022-11-15T17:03:56;7.68;;;2.92;;
10212;SDS011;5150;51.400;6.692;2022-11-15T17:07:19;8.93;;;2.55;;
10212;SDS011;5150;51.400;6.692;2022-11-15T17:10:43;6.90;;;2.58;;
10212;SDS011;5150;51.400;6.692;2022-11-15T17:14:08;4.13;;;2.42;;
10212;SDS011;5150;51.400;6.692;2022-11-15T17:17:31;9.57;;;2.85;;
10212;SDS011;5150;51.400;6.692;2022-11-15T17:20:54;10.52;;;3.60;;
10212;SDS011;5150;51.400;6.692;2022-11-15T17:24:17;9.85;;;3.17;;
10212;SDS011;5150;51.400;6.692;2022-11-15T17:27:41;5.75;;;3.08;;
10212;SDS011;5150;51.400;6.692;2022-11-15T17:31:06;6.78;;;2.42;;
10212;SDS011;5150;51.400;6.692;2022-11-15T17:34:30;8.18;;;2.70;;
10212;SDS011;5150;51.400;6.692;2022-11-15T17:37:53;6.40;;;3.05;;
10212;SDS011;5150;51.400;6.692;2022-11-15T17:41:16;5.45;;;2.88;;
10212;SDS011;5150;51.400;6.692;2022-11-15T17:44:41;7.32;;;3.75;;
10212;SDS011;5150;51.400;6.692;2022-11-15T17:48:05;6.95;;;2.60;;
10212;SDS011;5150;51.400;6.692;2022-11-15T17:51:28;5.30;;;2.85;;
10212;SDS011;5150;51.400;6.692;2022-11-15T17:54:51;6.72;;;2.67;;
10212;SDS011;5150;51.400;6.692;2022-11-15T17:58:14;2.92;;;2.30;;
10212;SDS011;5150;51.400;6.692;2022-11-15T18:01:38;4.10;;;2.78;;
10212;SDS011;5150;51.400;6.692;2022-11-15T18:05:03;9.98;;;2.72;;
10212;SDS011;5150;51.400;6.692;2022-11-15T18:08:27;6.10;;;2.75;;
10212;SDS011;5150;51.400;6.692;2022-11-15T18:11:50;5.72;;;2.95;;
10212;SDS011;5150;51.400;6.692;2022-11-15T18:15:14;8.38;;;2.55;;
10212;SDS011;5150;51.400;6.692;2022-11-15T18:18:39;9.32;;;2.88;;
10212;SDS011;5150;51.400;6.692;2022-11-15T18:22:04;4.60;;;2.38;;
10212;SDS011;5150;51.400;6.692;2022-11-15T18:25:29;4.95;;;2.30;;
10212;SDS011;5150;51.400;6.692;2022-11-15T18:28:53;7.97;;;2.67;;
10212;SDS011;5150;51.400;6.692;2022-11-15T18:32:17;5.25;;;2.00;;
10212;SDS011;5150;51.400;6.692;2022-11-15T18:35:40;4.72;;;2.50;;
10212;SDS011;5150;51.400;6.692;2022-11-15T18:39:05;4.25;;;2.55;;
10212;SDS011;5150;51.400;6.692;2022-11-15T18:42:29;3.33;;;2.28;;
10212;SDS011;5150;51.400;6.692;2022-11-15T18:45:53;4.05;;;2.05;;
10212;SDS011;5150;51.400;6.692;2022-11-15T18:49:16;2.72;;;2.03;;
10212;SDS011;5150;51.400;6.692;2022-11-15T18:52:40;6.78;;;2.50;;
10212;SDS011;5150;51.400;6.692;2022-11-15T18:56:05;5.53;;;2.03;;
10212;SDS011;5150;51.400;6.692;2022-11-15T18:59:29;4.28;;;2.22;;
10212;SDS011;5150;51.400;6.692;2022-11-15T19:02:52;2.35;;;2.15;;
10212;SDS011;5150;51.400;6.692;2022-11-15T19:06:16;5.32;;;3.05;;
10212;SDS011;5150;51.400;6.692;2022-11-15T19:09:40;4.00;;;2.45;;
10212;SDS011;5150;51.400;6.692;2022-11-15T19:13:04;3.72;;;2.28;;
10212;SDS011;5150;51.400;6.692;2022-11-15T19:16:28;3.08;;;2.30;;
10212;SDS011;5150;51.400;6.692;2022-11-15T19:19:51;3.55;;;2.33;;
10212;SDS011;5150;51.400;6.692;2022-11-15T19:23:14;3.85;;;2.78;;
10212;SDS011;5150;51.400;6.692;2022-11-15T19:26:37;7.18;;;2.22;;
10212;SDS011;5150;51.400;6.692;2022-11-15T19:30:02;2.50;;;1.58;;
10212;SDS011;5150;51.400;6.692;2022-11-15T19:33:25;1.92;;;1.67;;
10212;SDS011;5150;51.400;6.692;2022-11-15T19:36:48;3.50;;;1.80;;
10212;SDS011;5150;51.400;6.692;2022-11-15T19:40:11;2.53;;;2.33;;
10212;SDS011;5150;51.400;6.692;2022-11-15T19:43:34;7.25;;;2.40;;
10212;SDS011;5150;51.400;6.692;2022-11-15T19:46:58;2.50;;;1.58;;
10212;SDS011;5150;51.400;6.692;2022-11-15T19:50:21;5.38;;;1.98;;
10212;SDS011;5150;51.400;6.692;2022-11-15T19:53:44;3.60;;;2.17;;
10212;SDS011;5150;51.400;6.692;2022-11-15T19:57:07;3.30;;;2.15;;
10212;SDS011;5150;51.400;6.692;2022-11-15T20:00:30;4.78;;;2.67;;
10212;SDS011;5150;51.400;6.692;2022-11-15T20:03:55;3.40;;;2.15;;
10212;SDS011;5150;51.400;6.692;2022-11-15T20:07:19;4.70;;;2.22;;
10212;SDS011;5150;51.400;6.692;2022-11-15T20:10:42;5.03;;;2.60;;
10212;SDS011;5150;51.400;6.692;2022-11-15T20:14:08;3.65;;;1.83;;
10212;SDS011;5150;51.400;6.692;2022-11-15T20:17:33;4.45;;;2.42;;
10212;SDS011;5150;51.400;6.692;2022-11-15T20:20:57;4.18;;;2.45;;
10212;SDS011;5150;51.400;6.692;2022-11-15T20:24:20;3.28;;;2.45;;
10212;SDS011;5150;51.400;6.692;2022-11-15T20:27:43;7.00;;;2.30;;
10212;SDS011;5150;51.400;6.692;2022-11-15T20:31:06;3.20;;;2.08;;
10212;SDS011;5150;51.400;6.692;2022-11-15T20:34:30;2.72;;;2.03;;
10212;SDS011;5150;51.400;6.692;2022-11-15T20:37:55;3.22;;;2.05;;
10212;SDS011;5150;51.400;6.692;2022-11-15T20:41:18;6.13;;;3.15;;
10212;SDS011;5150;51.400;6.692;2022-11-15T20:44:41;4.93;;;2.40;;
10212;SDS011;5150;51.400;6.692;2022-11-15T20:48:04;2.67;;;2.45;;
10212;SDS011;5150;51.400;6.692;2022-11-15T20:51:27;3.38;;;2.75;;
10212;SDS011;5150;51.400;6.692;2022-11-15T20:54:52;3.25;;;2.58;;
10212;SDS011;5150;51.400;6.692;2022-11-15T20:58:15;6.43;;;1.90;;
10212;SDS011;5150;51.400;6.692;2022-11-15T21:01:39;4.53;;;2.20;;
10212;SDS011;5150;51.400;6.692;2022-11-15T21:05:03;4.00;;;1.98;;
10212;SDS011;5150;51.400;6.692;2022-11-15T21:08:27;3.72;;;2.17;;
10212;SDS011;5150;51.400;6.692;2022-11-15T21:12:13;4.97;;;2.28;;
10212;SDS011;5150;51.400;6.692;2022-11-15T21:15:35;2.45;;;2.20;;
10212;SDS011;5150;51.400;6.692;2022-11-15T21:18:58;5.45;;;2.78;;
10212;SDS011;5150;51.400;6.692;2022-11-15T21:22:21;4.88;;;2.03;;
10212;SDS011;5150;51.400;6.692;2022-11-15T21:25:47;3.60;;;2.53;;
10212;SDS011;5150;51.400;6.692;2022-11-15T21:29:11;3.50;;;2.05;;
10212;SDS011;5150;51.400;6.692;2022-11-15T21:32:37;3.45;;;2.50;;
10212;SDS011;5150;51.400;6.692;2022-11-15T21:36:00;3.30;;;1.92;;
10212;SDS011;5150;51.400;6.692;2022-11-15T21:39:23;2.55;;;1.92;;
10212;SDS011;5150;51.400;6.692;2022-11-15T21:42:46;4.38;;;2.00;;
10212;SDS011;5150;51.400;6.692;2022-11-15T21:46:10;2.00;;;1.90;;
10212;SDS011;5150;51.400;6.692;2022-11-15T21:49:33;2.78;;;1.90;;
10212;SDS011;5150;51.400;6.692;2022-11-15T21:52:56;2.83;;;2.35;;
10212;SDS011;5150;51.400;6.692;2022-11-15T21:56:19;5.15;;;2.05;;
10212;SDS011;5150;51.400;6.692;2022-11-15T21:59:43;2.80;;;2.13;;
10212;SDS011;5150;51.400;6.692;2022-11-15T22:03:21;2.65;;;1.90;;
10212;SDS011;5150;51.400;6.692;2022-11-15T22:06:47;3.17;;;2.20;;
10212;SDS011;5150;51.400;6.692;2022-11-15T22:10:10;2.33;;;1.90;;
10212;SDS011;5150;51.400;6.692;2022-11-15T22:13:33;3.10;;;1.80;;